createdAt,value
2022-11-15T00:02:25.253Z,97986.53
2022-11-15T00:05:11.265Z,97988.63
2022-11-15T00:07:58.321Z,97988.34
2022-11-15T00:10:44.358Z,97990.47
2022-11-15T00:13:31.339Z,97982.69
2022-11-15T00:16:17.699Z,97976.84
2022-11-15T00:19:03.895Z,97978.41
2022-11-15T00:21:49.634Z,97974.53
2022-11-15T00:24:35.685Z,97974.06
2022-11-15T00:27:21.884Z,97973.94
2022-11-15T00:30:08.278Z,97974.38
2022-11-15T00:32:54.222Z,97974.91
2022-11-15T00:35:40.414Z,97974.25
2022-11-15T00:38:26.347Z,97977.00
2022-11-15T00:41:12.466Z,97975.22
2022-11-15T00:43:58.728Z,97976.84
2022-11-15T00:46:44.852Z,97977.13
2022-11-15T00:49:31.075Z,97967.38
2022-11-15T00:52:16.407Z,97968.44
2022-11-15T00:55:01.852Z,97966.63
2022-11-15T00:57:47.872Z,97960.19
2022-11-15T01:00:33.690Z,97959.38
2022-11-15T01:03:19.449Z,97964.38
2022-11-15T01:06:05.265Z,97954.09
2022-11-15T01:08:50.723Z,97951.59
2022-11-15T01:11:36.695Z,97954.69
2022-11-15T01:14:25.513Z,97948.19
2022-11-15T01:17:11.281Z,97943.56
2022-11-15T01:19:56.805Z,97933.38
2022-11-15T01:22:42.119Z,97926.53
2022-11-15T01:25:27.813Z,97933.16
2022-11-15T01:28:16.720Z,97913.25
2022-11-15T01:31:05.319Z,97906.19
2022-11-15T01:33:51.572Z,97910.88
2022-11-15T01:36:37.675Z,97917.06
2022-11-15T01:39:23.273Z,97927.31
2022-11-15T01:42:14.477Z,97926.50
2022-11-15T01:45:00.065Z,97914.75
2022-11-15T01:47:51.123Z,97920.16
2022-11-15T01:50:39.605Z,97920.63
2022-11-15T01:53:26.838Z,97921.19
2022-11-15T01:56:25.282Z,97915.03
2022-11-15T01:59:12.579Z,97908.94
2022-11-15T02:01:58.228Z,97899.06
2022-11-15T02:04:47.346Z,97899.19
2022-11-15T02:07:33.840Z,97900.75
2022-11-15T02:10:23.723Z,97901.81
2022-11-15T02:13:09.250Z,97899.50
2022-11-15T02:16:15.557Z,97894.44
2022-11-15T02:19:32.981Z,97888.28
2022-11-15T02:22:21.518Z,97884.19
2022-11-15T02:25:37.535Z,97889.47
2022-11-15T02:29:02.929Z,97878.56
2022-11-15T02:32:38.636Z,97875.69
2022-11-15T02:35:58.639Z,97869.94
2022-11-15T02:39:00.529Z,97870.69
2022-11-15T02:42:05.497Z,97873.03
2022-11-15T02:44:52.268Z,97874.50
2022-11-15T02:47:45.321Z,97863.06
2022-11-15T02:50:33.930Z,97855.69
2022-11-15T02:53:21.897Z,97860.03
2022-11-15T02:56:12.363Z,97856.50
2022-11-15T02:59:54.446Z,97849.81
2022-11-15T03:03:10.385Z,97854.25
2022-11-15T03:06:16.767Z,97861.69
2022-11-15T03:09:18.948Z,97852.81
2022-11-15T03:12:27.341Z,97850.31
2022-11-15T03:15:27.053Z,97847.94
2022-11-15T03:18:22.010Z,97846.91
2022-11-15T03:21:10.871Z,97831.22
2022-11-15T03:23:59.018Z,97843.63
2022-11-15T03:26:46.835Z,97834.69
2022-11-15T03:29:40.805Z,97833.59
2022-11-15T03:32:30.461Z,97836.31
2022-11-15T03:35:22.103Z,97835.09
2022-11-15T03:38:31.297Z,97822.44
2022-11-15T03:41:43.427Z,97824.00
2022-11-15T03:44:55.440Z,97822.72
2022-11-15T03:48:01.309Z,97817.63
2022-11-15T03:50:48.403Z,97816.31
2022-11-15T03:53:34.360Z,97820.31
2022-11-15T03:56:20.086Z,97820.75
2022-11-15T03:59:05.953Z,97809.78
2022-11-15T04:01:51.556Z,97811.84
2022-11-15T04:04:37.344Z,97813.63
2022-11-15T04:07:23.202Z,97807.38
2022-11-15T04:10:12.393Z,97800.56
2022-11-15T04:12:58.579Z,97800.78
2022-11-15T04:15:44.871Z,97803.75
2022-11-15T04:18:30.477Z,97805.41
2022-11-15T04:21:35.427Z,97798.41
2022-11-15T04:24:21.290Z,97801.13
2022-11-15T04:27:06.913Z,97801.25
2022-11-15T04:29:52.695Z,97800.19
2022-11-15T04:32:38.412Z,97797.16
2022-11-15T04:35:24.136Z,97793.09
2022-11-15T04:38:11.912Z,97802.09
2022-11-15T04:40:58.167Z,97801.75
2022-11-15T04:43:44.156Z,97796.66
2022-11-15T04:46:30.411Z,97799.19
2022-11-15T04:49:16.356Z,97792.63
2022-11-15T04:52:02.197Z,97794.31
2022-11-15T04:54:48.319Z,97790.13
2022-11-15T04:57:33.842Z,97804.72
2022-11-15T05:00:19.458Z,97792.88
2022-11-15T05:03:23.884Z,97798.03
2022-11-15T05:06:09.653Z,97784.75
2022-11-15T05:08:55.844Z,97785.16
2022-11-15T05:11:42.299Z,97782.31
2022-11-15T05:14:30.647Z,97791.63
2022-11-15T05:17:16.153Z,97777.13
2022-11-15T05:20:01.716Z,97786.09
2022-11-15T05:22:47.440Z,97783.13
2022-11-15T05:25:33.404Z,97779.78
2022-11-15T05:28:18.770Z,97777.25
2022-11-15T05:31:17.412Z,97776.34
2022-11-15T05:34:06.183Z,97779.81
2022-11-15T05:36:51.911Z,97773.22
2022-11-15T05:39:37.366Z,97770.69
2022-11-15T05:42:23.473Z,97764.72
2022-11-15T05:45:10.489Z,97765.78
2022-11-15T05:47:58.650Z,97769.66
2022-11-15T05:50:48.132Z,97756.63
2022-11-15T05:53:34.320Z,97757.66
2022-11-15T05:56:20.258Z,97757.50
2022-11-15T05:59:06.658Z,97757.28
2022-11-15T06:01:52.644Z,97754.84
2022-11-15T06:04:38.646Z,97758.84
2022-11-15T06:07:24.941Z,97753.50
2022-11-15T06:10:10.802Z,97751.78
2022-11-15T06:13:05.126Z,97753.06
2022-11-15T06:15:50.907Z,97754.63
2022-11-15T06:18:37.670Z,97757.94
2022-11-15T06:21:23.902Z,97762.00
2022-11-15T06:24:09.335Z,97755.13
2022-11-15T06:26:55.063Z,97767.78
2022-11-15T06:29:40.620Z,97771.31
2022-11-15T06:32:26.090Z,97762.72
2022-11-15T06:35:11.864Z,97766.22
2022-11-15T06:38:07.843Z,97764.47
2022-11-15T06:40:53.004Z,97762.97
2022-11-15T06:43:38.996Z,97763.59
2022-11-15T06:46:24.385Z,97756.97
2022-11-15T06:49:10.246Z,97768.59
2022-11-15T06:51:55.760Z,97760.94
2022-11-15T06:54:41.237Z,97760.31
2022-11-15T06:57:26.626Z,97770.69
2022-11-15T07:00:12.684Z,97766.13
2022-11-15T07:03:01.906Z,97770.53
2022-11-15T07:06:02.759Z,97766.00
2022-11-15T07:08:51.126Z,97774.50
2022-11-15T07:11:36.881Z,97772.97
2022-11-15T07:14:23.084Z,97770.00
2022-11-15T07:17:09.074Z,97770.91
2022-11-15T07:19:55.194Z,97772.84
2022-11-15T07:22:42.180Z,97767.25
2022-11-15T07:25:27.719Z,97766.91
2022-11-15T07:28:13.753Z,97770.66
2022-11-15T07:31:07.620Z,97757.47
2022-11-15T07:33:53.563Z,97769.88
2022-11-15T07:36:39.494Z,97771.00
2022-11-15T07:39:25.662Z,97769.53
2022-11-15T07:42:30.369Z,97782.91
2022-11-15T07:45:16.187Z,97776.44
2022-11-15T07:48:02.174Z,97774.28
2022-11-15T07:50:48.332Z,97770.28
2022-11-15T07:53:34.648Z,97775.38
2022-11-15T07:56:21.744Z,97772.03
2022-11-15T07:59:07.426Z,97772.41
2022-11-15T08:01:52.797Z,97771.50
2022-11-15T08:04:39.094Z,97773.72
2022-11-15T08:07:25.105Z,97769.56
2022-11-15T08:10:12.864Z,97761.03
2022-11-15T08:13:04.489Z,97761.50
2022-11-15T08:15:53.504Z,97759.22
2022-11-15T08:18:43.123Z,97756.03
2022-11-15T08:21:28.924Z,97756.78
2022-11-15T08:24:15.380Z,97750.88
2022-11-15T08:27:01.278Z,97759.56
2022-11-15T08:29:47.149Z,97752.25
2022-11-15T08:32:33.203Z,97753.53
2022-11-15T08:35:24.779Z,97744.75
2022-11-15T08:38:13.667Z,97749.03
2022-11-15T08:41:07.020Z,97743.41
2022-11-15T08:43:53.033Z,97737.97
2022-11-15T08:46:39.087Z,97734.44
2022-11-15T08:49:24.776Z,97727.78
2022-11-15T08:52:10.183Z,97727.75
2022-11-15T08:54:55.663Z,97726.13
2022-11-15T08:57:41.818Z,97720.72
2022-11-15T09:00:27.238Z,97712.38
2022-11-15T09:03:12.600Z,97722.19
2022-11-15T09:06:00.237Z,97729.72
2022-11-15T09:08:47.896Z,97725.09
2022-11-15T09:11:34.582Z,97728.34
2022-11-15T09:14:20.189Z,97720.59
2022-11-15T09:17:09.703Z,97711.53
2022-11-15T09:19:55.757Z,97710.44
2022-11-15T09:22:42.269Z,97696.81
2022-11-15T09:25:27.816Z,97704.97
2022-11-15T09:28:13.931Z,97705.47
2022-11-15T09:31:01.515Z,97705.28
2022-11-15T09:33:47.512Z,97702.25
2022-11-15T09:36:33.292Z,97698.59
2022-11-15T09:39:18.668Z,97702.16
2022-11-15T09:42:49.422Z,97694.09
2022-11-15T09:46:10.915Z,97692.81
2022-11-15T09:49:09.606Z,97690.25
2022-11-15T09:51:57.709Z,97684.47
2022-11-15T09:54:53.435Z,97677.97
2022-11-15T09:57:35.995Z,97675.97
2022-11-15T10:00:45.338Z,97674.91
2022-11-15T10:03:31.050Z,97674.22
2022-11-15T10:06:05.239Z,97665.66
2022-11-15T10:09:23.946Z,97668.03
2022-11-15T10:11:51.352Z,97665.09
2022-11-15T10:14:25.022Z,97666.63
2022-11-15T10:17:39.900Z,97662.59
2022-11-15T10:20:27.562Z,97661.34
2022-11-15T10:23:01.407Z,97648.72
2022-11-15T10:25:36.148Z,97659.50
2022-11-15T10:28:38.590Z,97658.72
2022-11-15T10:31:27.183Z,97647.97
2022-11-15T10:34:13.852Z,97642.97
2022-11-15T10:36:50.322Z,97641.31
2022-11-15T10:39:17.905Z,97627.94
2022-11-15T10:41:45.450Z,97635.25
2022-11-15T10:44:22.627Z,97622.75
2022-11-15T10:46:55.443Z,97620.06
2022-11-15T10:49:30.921Z,97629.91
2022-11-15T10:52:12.355Z,97618.34
2022-11-15T10:54:45.286Z,97620.25
2022-11-15T10:57:19.652Z,97612.63
2022-11-15T10:59:53.950Z,97610.69
2022-11-15T11:03:08.136Z,97610.03
2022-11-15T11:05:41.715Z,97607.09
2022-11-15T11:08:12.707Z,97596.56
2022-11-15T11:11:01.371Z,97600.38
2022-11-15T11:13:39.413Z,97605.22
2022-11-15T11:16:22.394Z,97605.09
2022-11-15T11:19:12.298Z,97599.31
2022-11-15T11:22:34.733Z,97595.31
2022-11-15T11:25:31.648Z,97601.31
2022-11-15T11:28:20.026Z,97595.34
2022-11-15T11:31:28.225Z,97590.28
2022-11-15T11:34:16.614Z,97601.66
2022-11-15T11:36:51.558Z,97597.31
2022-11-15T11:40:00.173Z,97596.28
2022-11-15T11:43:00.095Z,97591.44
2022-11-15T11:45:54.052Z,97590.25
2022-11-15T11:48:46.698Z,97586.16
2022-11-15T11:51:33.335Z,97579.88
2022-11-15T11:54:43.828Z,97575.09
2022-11-15T11:57:29.824Z,97583.41
2022-11-15T12:00:20.162Z,97568.44
2022-11-15T12:03:26.594Z,97564.44
2022-11-15T12:06:03.110Z,97565.53
2022-11-15T12:08:47.187Z,97555.56
2022-11-15T12:12:03.781Z,97549.16
2022-11-15T12:14:55.416Z,97548.19
2022-11-15T12:17:26.404Z,97538.47
2022-11-15T12:20:20.579Z,97526.81
2022-11-15T12:22:57.976Z,97530.88
2022-11-15T12:25:41.951Z,97527.91
2022-11-15T12:28:17.355Z,97516.81
2022-11-15T12:30:53.051Z,97509.06
2022-11-15T12:33:44.446Z,97506.75
2022-11-15T12:36:31.726Z,97504.59
2022-11-15T12:39:01.585Z,97508.69
2022-11-15T12:41:31.478Z,97507.88
2022-11-15T12:44:00.248Z,97508.91
2022-11-15T12:46:30.190Z,97515.28
2022-11-15T12:49:09.269Z,97514.41
2022-11-15T12:51:48.525Z,97514.78
2022-11-15T12:54:24.759Z,97502.81
2022-11-15T12:57:04.027Z,97513.16
2022-11-15T12:59:56.264Z,97509.72
2022-11-15T13:02:37.537Z,97504.75
2022-11-15T13:05:16.593Z,97504.19
2022-11-15T13:07:43.828Z,97497.84
2022-11-15T13:10:13.773Z,97493.63
2022-11-15T13:12:46.566Z,97495.09
2022-11-15T13:15:13.447Z,97494.59
2022-11-15T13:17:54.242Z,97492.44
2022-11-15T13:20:32.110Z,97489.00
2022-11-15T13:23:17.549Z,97489.56
2022-11-15T13:26:11.405Z,97484.28
2022-11-15T13:28:55.584Z,97482.69
2022-11-15T13:31:29.890Z,97477.56
2022-11-15T13:34:10.053Z,97471.91
2022-11-15T13:36:44.859Z,97459.03
2022-11-15T13:39:34.763Z,97467.19
2022-11-15T13:42:02.088Z,97457.69
2022-11-15T13:44:32.898Z,97444.25
2022-11-15T13:47:08.240Z,97439.75
2022-11-15T13:49:35.879Z,97445.91
2022-11-15T13:52:08.057Z,97428.97
2022-11-15T13:55:10.648Z,97430.31
2022-11-15T13:57:52.226Z,97431.69
2022-11-15T14:00:45.719Z,97436.78
2022-11-15T14:03:32.321Z,97424.63
2022-11-15T14:06:17.159Z,97426.59
2022-11-15T14:08:58.996Z,97430.13
2022-11-15T14:11:26.925Z,97415.75
2022-11-15T14:14:16.600Z,97415.28
2022-11-15T14:16:54.468Z,97415.59
2022-11-15T14:19:21.261Z,97403.81
2022-11-15T14:22:14.765Z,97395.47
2022-11-15T14:24:46.130Z,97398.41
2022-11-15T14:27:25.145Z,97388.56
2022-11-15T14:29:53.253Z,97390.84
2022-11-15T14:32:26.930Z,97391.25
2022-11-15T14:35:03.632Z,97382.47
2022-11-15T14:37:35.579Z,97379.63
2022-11-15T14:40:07.631Z,97374.88
2022-11-15T14:42:34.738Z,97369.84
2022-11-15T14:45:01.683Z,97370.19
2022-11-15T14:47:28.975Z,97382.00
2022-11-15T14:49:56.131Z,97371.34
2022-11-15T14:52:32.655Z,97371.94
2022-11-15T14:55:02.388Z,97365.94
2022-11-15T14:57:30.781Z,97367.50
2022-11-15T14:59:58.168Z,97372.63
2022-11-15T15:02:39.692Z,97370.75
2022-11-15T15:05:26.253Z,97363.34
2022-11-15T15:07:56.414Z,97363.03
2022-11-15T15:10:39.613Z,97361.53
2022-11-15T15:13:23.953Z,97352.03
2022-11-15T15:15:52.651Z,97354.34
2022-11-15T15:18:20.871Z,97342.72
2022-11-15T15:20:57.142Z,97332.56
2022-11-15T15:23:26.573Z,97331.91
2022-11-15T15:25:54.089Z,97326.16
2022-11-15T15:28:21.118Z,97316.84
2022-11-15T15:30:48.055Z,97314.41
2022-11-15T15:33:15.006Z,97317.81
2022-11-15T15:35:42.640Z,97300.50
2022-11-15T15:38:13.193Z,97302.50
2022-11-15T15:40:40.564Z,97301.06
2022-11-15T15:43:10.017Z,97300.25
2022-11-15T15:45:42.206Z,97306.09
2022-11-15T15:48:17.467Z,97297.25
2022-11-15T15:50:44.530Z,97300.28
2022-11-15T15:53:13.201Z,97291.00
2022-11-15T15:55:40.863Z,97287.53
2022-11-15T15:58:09.103Z,97285.28
2022-11-15T16:00:36.213Z,97281.53
2022-11-15T16:03:03.321Z,97278.19
2022-11-15T16:05:30.296Z,97281.47
2022-11-15T16:07:57.262Z,97269.13
2022-11-15T16:10:28.306Z,97269.78
2022-11-15T16:12:57.797Z,97269.16
2022-11-15T16:15:31.525Z,97264.84
2022-11-15T16:18:00.917Z,97255.88
2022-11-15T16:20:45.891Z,97244.66
2022-11-15T16:23:16.275Z,97249.50
2022-11-15T16:25:57.214Z,97251.84
2022-11-15T16:28:33.896Z,97243.53
2022-11-15T16:31:09.404Z,97236.41
2022-11-15T16:33:37.164Z,97241.91
2022-11-15T16:36:06.965Z,97244.38
2022-11-15T16:38:34.535Z,97238.94
2022-11-15T16:41:01.841Z,97238.00
2022-11-15T16:43:28.818Z,97234.22
2022-11-15T16:45:58.843Z,97235.66
2022-11-15T16:48:27.981Z,97233.66
2022-11-15T16:50:57.732Z,97224.31
2022-11-15T16:53:26.505Z,97233.63
2022-11-15T16:55:55.110Z,97228.22
2022-11-15T16:58:22.423Z,97228.88
2022-11-15T17:00:57.173Z,97219.84
2022-11-15T17:03:25.210Z,97215.91
2022-11-15T17:05:59.883Z,97211.41
2022-11-15T17:08:29.914Z,97206.31
2022-11-15T17:10:57.116Z,97206.09
2022-11-15T17:13:24.421Z,97199.16
2022-11-15T17:16:37.105Z,97205.47
2022-11-15T17:19:22.597Z,97196.06
2022-11-15T17:21:49.823Z,97200.59
2022-11-15T17:24:24.163Z,97191.00
2022-11-15T17:26:51.285Z,97190.19
2022-11-15T17:29:18.598Z,97191.06
2022-11-15T17:31:45.794Z,97178.47
2022-11-15T17:34:12.686Z,97187.94
2022-11-15T17:36:39.705Z,97171.66
2022-11-15T17:39:06.615Z,97170.66
2022-11-15T17:41:33.600Z,97170.31
2022-11-15T17:44:03.006Z,97168.56
2022-11-15T17:46:30.352Z,97171.56
2022-11-15T17:48:57.885Z,97165.19
2022-11-15T17:51:25.167Z,97158.41
2022-11-15T17:53:52.960Z,97158.25
2022-11-15T17:56:23.168Z,97152.72
2022-11-15T17:58:55.600Z,97160.69
2022-11-15T18:01:34.862Z,97165.53
2022-11-15T18:04:04.935Z,97160.97
2022-11-15T18:06:34.883Z,97170.16
2022-11-15T18:09:03.402Z,97162.94
2022-11-15T18:11:39.106Z,97162.94
2022-11-15T18:14:13.161Z,97154.22
2022-11-15T18:16:40.383Z,97160.97
2022-11-15T18:19:14.014Z,97159.38
2022-11-15T18:21:57.989Z,97161.19
2022-11-15T18:24:32.468Z,97153.22
2022-11-15T18:27:01.573Z,97150.59
2022-11-15T18:29:28.648Z,97146.53
2022-11-15T18:31:55.906Z,97154.25
2022-11-15T18:34:25.414Z,97141.03
2022-11-15T18:36:53.171Z,97145.66
2022-11-15T18:39:20.680Z,97143.38
2022-11-15T18:41:48.094Z,97148.41
2022-11-15T18:44:17.366Z,97145.72
2022-11-15T18:46:47.584Z,97145.88
2022-11-15T18:49:16.724Z,97140.88
2022-11-15T18:51:43.912Z,97143.84
2022-11-15T18:54:14.704Z,97136.34
2022-11-15T18:56:44.529Z,97136.13
2022-11-15T18:59:11.655Z,97127.53
2022-11-15T19:01:41.976Z,97130.28
2022-11-15T19:04:18.377Z,97136.53
2022-11-15T19:06:48.005Z,97126.03
2022-11-15T19:09:17.673Z,97137.84
2022-11-15T19:11:47.727Z,97126.75
2022-11-15T19:14:17.350Z,97126.69
2022-11-15T19:16:55.159Z,97127.22
2022-11-15T19:19:28.513Z,97117.88
2022-11-15T19:21:57.416Z,97128.66
2022-11-15T19:24:26.341Z,97127.06
2022-11-15T19:26:54.786Z,97128.00
2022-11-15T19:29:21.808Z,97129.94
2022-11-15T19:31:48.892Z,97124.38
2022-11-15T19:34:16.494Z,97126.22
2022-11-15T19:36:44.919Z,97133.19
2022-11-15T19:39:14.708Z,97127.84
2022-11-15T19:41:43.619Z,97125.22
2022-11-15T19:44:12.269Z,97127.19
2022-11-15T19:46:40.003Z,97132.28
2022-11-15T19:49:10.339Z,97128.44
2022-11-15T19:51:38.921Z,97126.22
2022-11-15T19:54:08.781Z,97127.88
2022-11-15T19:56:39.721Z,97124.72
2022-11-15T19:59:06.751Z,97123.50
2022-11-15T20:01:36.898Z,97112.91
2022-11-15T20:04:04.808Z,97110.03
2022-11-15T20:06:35.859Z,97095.78
2022-11-15T20:09:06.341Z,97101.06
2022-11-15T20:11:34.222Z,97097.81
2022-11-15T20:14:04.891Z,97080.41
2022-11-15T20:16:31.827Z,97083.59
2022-11-15T20:18:58.891Z,97077.03
2022-11-15T20:21:25.847Z,97085.44
2022-11-15T20:23:53.042Z,97071.63
2022-11-15T20:26:20.660Z,97064.41
2022-11-15T20:28:48.171Z,97056.47
2022-11-15T20:31:16.262Z,97058.69
2022-11-15T20:33:43.234Z,97060.75
2022-11-15T20:36:13.778Z,97057.84
2022-11-15T20:38:40.819Z,97045.59
2022-11-15T20:41:08.191Z,97052.25
2022-11-15T20:43:35.348Z,97036.25
2022-11-15T20:46:02.353Z,97038.41
2022-11-15T20:48:29.579Z,97029.47
2022-11-15T20:51:10.064Z,97024.00
2022-11-15T20:53:37.150Z,97025.28
2022-11-15T20:56:11.939Z,97023.47
2022-11-15T20:58:39.464Z,97021.69
2022-11-15T21:01:08.730Z,97013.47
2022-11-15T21:03:36.747Z,97014.56
2022-11-15T21:06:04.148Z,97013.72
2022-11-15T21:08:51.780Z,97010.78
2022-11-15T21:11:38.119Z,97010.06
2022-11-15T21:14:09.305Z,97000.50
2022-11-15T21:16:37.879Z,96998.13
2022-11-15T21:19:06.623Z,96997.03
2022-11-15T21:21:35.533Z,96986.19
2022-11-15T21:24:08.990Z,96995.31
2022-11-15T21:26:37.326Z,96993.97
2022-11-15T21:29:04.767Z,96997.16
2022-11-15T21:31:34.729Z,96997.22
2022-11-15T21:34:02.798Z,96999.31
2022-11-15T21:36:32.125Z,96991.16
2022-11-15T21:38:59.067Z,96991.09
2022-11-15T21:41:26.396Z,96993.94
2022-11-15T21:44:00.540Z,96987.34
2022-11-15T21:46:32.041Z,96989.44
2022-11-15T21:48:59.293Z,96987.38
2022-11-15T21:51:26.550Z,96990.53
2022-11-15T21:53:56.416Z,96991.69
2022-11-15T21:56:25.586Z,96990.00
2022-11-15T21:58:54.061Z,96986.13
2022-11-15T22:01:49.356Z,96976.75
2022-11-15T22:04:18.782Z,96966.69
2022-11-15T22:06:45.908Z,96966.88
2022-11-15T22:09:12.943Z,96953.38
2022-11-15T22:11:39.969Z,96945.31
2022-11-15T22:14:07.168Z,96957.75
2022-11-15T22:16:34.234Z,96954.84
2022-11-15T22:19:01.452Z,96949.97
2022-11-15T22:21:28.462Z,96953.28
2022-11-15T22:23:55.419Z,96938.13
2022-11-15T22:26:23.990Z,96947.44
2022-11-15T22:28:51.742Z,96946.03
2022-11-15T22:31:18.732Z,96941.56
2022-11-15T22:33:45.840Z,96944.31
2022-11-15T22:36:13.434Z,96940.81
2022-11-15T22:38:40.879Z,96937.31
2022-11-15T22:41:08.479Z,96933.94
2022-11-15T22:43:35.881Z,96915.84
2022-11-15T22:46:04.679Z,96921.03
2022-11-15T22:48:36.321Z,96924.50
2022-11-15T22:51:04.744Z,96923.88
2022-11-15T22:53:31.791Z,96915.13
2022-11-15T22:56:02.405Z,96922.75
2022-11-15T22:58:31.759Z,96920.34
2022-11-15T23:01:02.602Z,96934.59
2022-11-15T23:03:30.867Z,96943.66
2022-11-15T23:06:06.561Z,96950.69
2022-11-15T23:08:34.281Z,96953.47
2022-11-15T23:11:22.558Z,96961.66
2022-11-15T23:13:53.205Z,96949.47
2022-11-15T23:16:23.120Z,96946.41
2022-11-15T23:18:53.968Z,96955.38
2022-11-15T23:21:58.008Z,96948.81
2022-11-15T23:24:25.538Z,96945.34
2022-11-15T23:26:56.258Z,96938.53
2022-11-15T23:29:25.052Z,96946.06
2022-11-15T23:32:12.068Z,96946.00
2022-11-15T23:34:42.766Z,96941.94
2022-11-15T23:37:13.716Z,96946.94
2022-11-15T23:39:40.892Z,96952.06
2022-11-15T23:42:09.541Z,96947.31
2022-11-15T23:44:37.113Z,96945.13
2022-11-15T23:47:04.126Z,96942.38
2022-11-15T23:49:31.025Z,96945.75
2022-11-15T23:51:57.980Z,96946.09
2022-11-15T23:54:24.929Z,96949.53
2022-11-15T23:56:51.877Z,96952.25
2022-11-15T23:59:18.823Z,96949.53
